createdAt,value
2023-05-09T00:00:19.613Z,34.33
2023-05-09T00:01:19.660Z,34.37
2023-05-09T00:02:19.752Z,34.30
2023-05-09T00:03:19.759Z,34.31
2023-05-09T00:04:19.867Z,34.36
2023-05-09T00:05:19.839Z,34.31
2023-05-09T00:06:19.933Z,34.33
2023-05-09T00:07:19.802Z,34.32
2023-05-09T00:08:19.865Z,34.36
2023-05-09T00:09:19.859Z,34.31
2023-05-09T00:10:19.941Z,34.36
2023-05-09T00:11:19.919Z,34.33
2023-05-09T00:12:19.954Z,34.32
2023-05-09T00:13:20.063Z,34.30
2023-05-09T00:14:20.004Z,34.32
2023-05-09T00:15:20.052Z,34.26
2023-05-09T00:16:20.116Z,34.32
2023-05-09T00:17:20.108Z,34.30
2023-05-09T00:18:20.155Z,34.34
2023-05-09T00:19:20.160Z,34.27
2023-05-09T00:20:20.193Z,34.31
2023-05-09T00:21:20.329Z,34.29
2023-05-09T00:22:20.314Z,34.27
2023-05-09T00:23:20.343Z,34.25
2023-05-09T00:24:20.386Z,34.22
2023-05-09T00:25:20.440Z,34.29
2023-05-09T00:26:20.494Z,34.30
2023-05-09T00:27:20.555Z,34.25
2023-05-09T00:28:20.618Z,34.26
2023-05-09T00:29:20.630Z,34.29
2023-05-09T00:30:20.672Z,34.29
2023-05-09T00:31:20.667Z,34.25
2023-05-09T00:32:20.760Z,34.30
2023-05-09T00:33:20.766Z,34.26
2023-05-09T00:34:20.801Z,34.24
2023-05-09T00:35:20.809Z,34.26
2023-05-09T00:36:20.882Z,34.27
2023-05-09T00:37:20.978Z,34.26
2023-05-09T00:38:20.916Z,34.22
2023-05-09T00:39:20.997Z,34.24
2023-05-09T00:40:21.017Z,34.24
2023-05-09T00:41:21.008Z,34.17
2023-05-09T00:42:21.052Z,34.25
2023-05-09T00:43:21.081Z,34.22
2023-05-09T00:44:21.147Z,34.19
2023-05-09T00:45:21.146Z,34.21
2023-05-09T00:46:21.234Z,34.17
2023-05-09T00:47:21.290Z,34.21
2023-05-09T00:48:21.222Z,34.21
2023-05-09T00:49:21.278Z,34.17
2023-05-09T00:50:21.286Z,34.14
2023-05-09T00:51:21.359Z,34.17
2023-05-09T00:52:21.407Z,34.19
2023-05-09T00:53:21.468Z,34.18
2023-05-09T00:54:21.407Z,34.19
2023-05-09T00:55:21.443Z,34.19
2023-05-09T00:56:21.461Z,34.16
2023-05-09T00:57:21.590Z,34.17
2023-05-09T00:58:21.546Z,34.19
2023-05-09T00:59:21.600Z,34.15
2023-05-09T01:00:21.917Z,34.22
2023-05-09T01:01:21.777Z,34.21
2023-05-09T01:02:21.814Z,34.16
2023-05-09T01:03:21.852Z,34.19
2023-05-09T01:04:21.799Z,34.17
2023-05-09T01:05:21.798Z,34.21
2023-05-09T01:06:21.838Z,34.17
2023-05-09T01:07:22.057Z,34.14
2023-05-09T01:08:21.930Z,34.21
2023-05-09T01:09:22.057Z,34.17
2023-05-09T01:10:21.997Z,34.18
2023-05-09T01:11:22.080Z,34.17
2023-05-09T01:12:22.154Z,34.15
2023-05-09T01:13:22.261Z,34.17
2023-05-09T01:14:22.211Z,34.17
2023-05-09T01:15:22.228Z,34.14
2023-05-09T01:16:22.304Z,34.13
2023-05-09T01:17:22.336Z,34.16
2023-05-09T01:18:22.407Z,34.16
2023-05-09T01:19:22.450Z,34.17
2023-05-09T01:20:22.523Z,34.18
2023-05-09T01:21:22.554Z,34.11
2023-05-09T01:22:22.600Z,34.09
2023-05-09T01:23:22.650Z,34.14
2023-05-09T01:24:22.699Z,34.10
2023-05-09T01:25:22.789Z,34.11
2023-05-09T01:26:22.750Z,34.14
2023-05-09T01:27:22.797Z,34.11
2023-05-09T01:28:22.824Z,34.14
2023-05-09T01:29:22.890Z,34.13
2023-05-09T01:30:22.925Z,34.13
2023-05-09T01:31:23.025Z,34.14
2023-05-09T01:32:23.116Z,34.10
2023-05-09T01:33:23.120Z,34.11
2023-05-09T01:34:23.159Z,34.13
2023-05-09T01:35:23.232Z,34.10
2023-05-09T01:36:23.254Z,34.09
2023-05-09T01:37:23.342Z,34.10
2023-05-09T01:38:23.376Z,34.14
2023-05-09T01:39:23.463Z,34.07
2023-05-09T01:40:23.510Z,34.10
2023-05-09T01:41:23.644Z,34.10
2023-05-09T01:42:23.520Z,34.10
2023-05-09T01:43:23.607Z,34.09
2023-05-09T01:44:23.639Z,34.07
2023-05-09T01:45:23.690Z,34.09
2023-05-09T01:46:23.721Z,34.09
2023-05-09T01:47:23.717Z,34.09
2023-05-09T01:48:23.744Z,34.07
2023-05-09T01:49:23.774Z,34.13
2023-05-09T01:50:23.860Z,34.08
2023-05-09T01:51:23.870Z,34.10
2023-05-09T01:52:23.882Z,34.10
2023-05-09T01:53:23.902Z,34.11
2023-05-09T01:54:23.940Z,34.03
2023-05-09T01:55:24.006Z,34.05
2023-05-09T01:56:24.053Z,34.07
2023-05-09T01:57:24.149Z,34.07
2023-05-09T01:58:24.128Z,34.07
2023-05-09T01:59:24.158Z,34.04
2023-05-09T02:00:24.249Z,34.07
2023-05-09T02:01:24.398Z,34.03
2023-05-09T02:02:24.472Z,34.04
2023-05-09T02:03:24.433Z,34.08
2023-05-09T02:04:24.414Z,34.06
2023-05-09T02:05:24.452Z,34.04
2023-05-09T02:06:24.495Z,34.04
2023-05-09T02:07:24.547Z,34.04
2023-05-09T02:08:24.536Z,34.04
2023-05-09T02:09:24.609Z,33.99
2023-05-09T02:10:24.618Z,34.04
2023-05-09T02:11:24.704Z,34.06
2023-05-09T02:12:24.699Z,34.00
2023-05-09T02:13:24.932Z,34.04
2023-05-09T02:14:24.757Z,34.02
2023-05-09T02:15:24.811Z,34.04
2023-05-09T02:16:24.886Z,33.99
2023-05-09T02:17:24.888Z,34.00
2023-05-09T02:18:24.927Z,34.03
2023-05-09T02:19:24.916Z,34.02
2023-05-09T02:20:24.955Z,34.02
2023-05-09T02:21:25.894Z,34.03
2023-05-09T02:22:25.041Z,34.04
2023-05-09T02:23:25.040Z,34.00
2023-05-09T02:24:25.081Z,34.00
2023-05-09T02:25:25.136Z,34.06
2023-05-09T02:26:25.175Z,34.00
2023-05-09T02:27:25.179Z,33.98
2023-05-09T02:28:25.224Z,34.00
2023-05-09T02:29:25.368Z,34.02
2023-05-09T02:30:25.502Z,34.02
2023-05-09T02:31:25.359Z,33.99
2023-05-09T02:32:25.362Z,33.94
2023-05-09T02:33:25.381Z,34.02
2023-05-09T02:34:25.412Z,33.96
2023-05-09T02:35:25.469Z,34.02
2023-05-09T02:36:25.502Z,34.02
2023-05-09T02:37:25.570Z,33.98
2023-05-09T02:38:25.556Z,33.98
2023-05-09T02:39:25.634Z,33.99
2023-05-09T02:40:25.639Z,34.02
2023-05-09T02:41:25.724Z,34.01
2023-05-09T02:42:25.716Z,33.99
2023-05-09T02:43:25.766Z,34.00
2023-05-09T02:44:25.776Z,33.99
2023-05-09T02:45:25.958Z,33.99
2023-05-09T02:46:25.979Z,33.98
2023-05-09T02:47:25.930Z,33.96
2023-05-09T02:48:25.941Z,34.03
2023-05-09T02:49:31.883Z,33.96
2023-05-09T02:50:27.008Z,33.96
2023-05-09T02:51:25.956Z,34.01
2023-05-09T02:52:25.951Z,34.02
2023-05-09T02:53:25.943Z,33.96
2023-05-09T02:54:25.956Z,33.96
2023-05-09T02:55:25.943Z,33.95
2023-05-09T02:56:25.968Z,33.96
2023-05-09T02:57:25.921Z,33.98
2023-05-09T02:58:25.935Z,33.96
2023-05-09T02:59:25.907Z,33.98
2023-05-09T03:00:25.932Z,33.95
2023-05-09T03:01:26.130Z,33.96
2023-05-09T03:02:26.060Z,33.96
2023-05-09T03:03:26.071Z,33.98
2023-05-09T03:04:26.058Z,33.99
2023-05-09T03:05:26.129Z,33.94
2023-05-09T03:06:26.133Z,33.98
2023-05-09T03:07:26.225Z,33.96
2023-05-09T03:08:26.218Z,33.96
2023-05-09T03:09:26.251Z,33.93
2023-05-09T03:10:26.266Z,33.90
2023-05-09T03:11:26.341Z,33.92
2023-05-09T03:12:26.391Z,33.92
2023-05-09T03:13:26.499Z,33.93
2023-05-09T03:14:26.456Z,33.94
2023-05-09T03:15:26.618Z,33.92
2023-05-09T03:16:26.632Z,33.91
2023-05-09T03:17:26.705Z,33.93
2023-05-09T03:18:26.659Z,33.95
2023-05-09T03:19:26.656Z,33.92
2023-05-09T03:20:26.702Z,33.92
2023-05-09T03:21:26.754Z,33.92
2023-05-09T03:22:26.861Z,33.92
2023-05-09T03:23:26.928Z,33.93
2023-05-09T03:24:26.962Z,33.92
2023-05-09T03:25:27.060Z,33.91
2023-05-09T03:26:27.093Z,33.91
2023-05-09T03:27:27.157Z,33.91
2023-05-09T03:28:27.166Z,33.91
2023-05-09T03:29:27.232Z,33.93
2023-05-09T03:30:27.290Z,33.89
2023-05-09T03:31:27.305Z,33.89
2023-05-09T03:32:27.434Z,33.91
2023-05-09T03:33:27.497Z,33.89
2023-05-09T03:34:27.446Z,33.91
2023-05-09T03:35:27.494Z,33.88
2023-05-09T03:36:27.570Z,33.94
2023-05-09T03:37:27.607Z,33.92
2023-05-09T03:38:27.683Z,33.89
2023-05-09T03:39:27.715Z,33.92
2023-05-09T03:40:27.767Z,33.89
2023-05-09T03:41:27.806Z,33.89
2023-05-09T03:42:27.889Z,33.89
2023-05-09T03:43:27.888Z,33.91
2023-05-09T03:44:27.934Z,33.88
2023-05-09T03:45:27.983Z,33.89
2023-05-09T03:46:28.052Z,33.87
2023-05-09T03:47:28.138Z,33.85
2023-05-09T03:48:28.122Z,33.88
2023-05-09T03:49:28.215Z,33.85
2023-05-09T03:50:28.174Z,33.91
2023-05-09T03:51:28.226Z,33.87
2023-05-09T03:52:28.251Z,33.84
2023-05-09T03:53:28.307Z,33.85
2023-05-09T03:54:28.351Z,33.86
2023-05-09T03:55:28.392Z,33.87
2023-05-09T03:56:28.415Z,33.84
2023-05-09T03:57:28.529Z,33.87
2023-05-09T03:58:28.497Z,33.83
2023-05-09T03:59:28.620Z,33.87
2023-05-09T04:00:28.582Z,33.87
2023-05-09T04:01:28.623Z,33.84
2023-05-09T04:02:28.768Z,33.85
2023-05-09T04:03:28.802Z,33.87
2023-05-09T04:04:28.811Z,33.88
2023-05-09T04:05:28.941Z,33.89
2023-05-09T04:06:28.902Z,33.89
2023-05-09T04:07:28.942Z,33.90
2023-05-09T04:08:28.991Z,33.86
2023-05-09T04:09:29.046Z,33.94
2023-05-09T04:10:29.096Z,33.91
2023-05-09T04:11:29.149Z,33.90
2023-05-09T04:12:29.171Z,33.89
2023-05-09T04:13:29.274Z,33.86
2023-05-09T04:14:29.222Z,33.90
2023-05-09T04:15:29.347Z,33.92
2023-05-09T04:16:29.368Z,33.94
2023-05-09T04:17:29.371Z,33.94
2023-05-09T04:18:29.403Z,33.95
2023-05-09T04:19:29.427Z,33.94
2023-05-09T04:20:29.445Z,33.97
2023-05-09T04:21:29.578Z,33.98
2023-05-09T04:22:29.532Z,33.97
2023-05-09T04:23:29.571Z,34.00
2023-05-09T04:24:29.579Z,34.00
2023-05-09T04:25:29.615Z,34.02
2023-05-09T04:26:29.634Z,34.07
2023-05-09T04:27:29.702Z,34.06
2023-05-09T04:28:29.738Z,34.03
2023-05-09T04:29:29.751Z,34.07
2023-05-09T04:30:29.796Z,34.12
2023-05-09T04:31:29.886Z,34.12
2023-05-09T04:32:29.918Z,34.15
2023-05-09T04:33:29.968Z,34.16
2023-05-09T04:34:30.046Z,34.18
2023-05-09T04:35:30.095Z,34.16
2023-05-09T04:36:30.131Z,34.21
2023-05-09T04:37:30.229Z,34.21
2023-05-09T04:38:30.208Z,34.15
2023-05-09T04:39:30.249Z,34.22
2023-05-09T04:40:30.336Z,34.22
2023-05-09T04:41:30.339Z,34.25
2023-05-09T04:42:30.404Z,34.26
2023-05-09T04:43:30.450Z,34.23
2023-05-09T04:44:30.520Z,34.25
2023-05-09T04:45:30.551Z,34.23
2023-05-09T04:46:30.642Z,34.27
2023-05-09T04:47:30.664Z,34.22
2023-05-09T04:48:30.645Z,34.25
2023-05-09T04:49:30.718Z,34.21
2023-05-09T04:50:30.761Z,34.17
2023-05-09T04:51:30.827Z,34.20
2023-05-09T04:52:30.893Z,34.22
2023-05-09T04:53:31.018Z,34.15
2023-05-09T04:54:30.996Z,34.21
2023-05-09T04:55:31.037Z,34.14
2023-05-09T04:56:31.112Z,34.16
2023-05-09T04:57:31.137Z,34.21
2023-05-09T04:58:31.220Z,34.19
2023-05-09T04:59:31.222Z,34.15
2023-05-09T05:00:31.243Z,34.14
2023-05-09T05:01:31.369Z,34.14
2023-05-09T05:02:31.383Z,34.10
2023-05-09T05:03:31.418Z,34.16
2023-05-09T05:04:31.429Z,34.14
2023-05-09T05:05:33.683Z,34.09
2023-05-09T05:06:31.475Z,34.14
2023-05-09T05:07:31.448Z,34.14
2023-05-09T05:08:31.452Z,34.10
2023-05-09T05:09:31.556Z,34.16
2023-05-09T05:10:31.422Z,34.11
2023-05-09T05:11:31.387Z,34.13
2023-05-09T05:12:31.390Z,34.10
2023-05-09T05:13:31.398Z,34.09
2023-05-09T05:14:31.390Z,34.10
2023-05-09T05:15:31.401Z,34.12
2023-05-09T05:16:31.402Z,34.10
2023-05-09T05:17:31.426Z,34.04
2023-05-09T05:18:31.368Z,34.09
2023-05-09T05:19:31.364Z,34.05
2023-05-09T05:20:31.378Z,34.08
2023-05-09T05:21:31.332Z,34.06
2023-05-09T05:22:32.793Z,34.08
2023-05-09T05:23:31.341Z,34.11
2023-05-09T05:24:31.351Z,34.05
2023-05-09T05:25:31.403Z,34.04
2023-05-09T05:26:31.303Z,34.07
2023-05-09T05:27:31.337Z,34.01
2023-05-09T05:28:31.332Z,34.04
2023-05-09T05:29:31.264Z,34.02
2023-05-09T05:30:34.008Z,33.97
2023-05-09T05:31:31.281Z,33.97
2023-05-09T05:32:31.318Z,34.06
2023-05-09T05:33:31.985Z,34.44
2023-05-09T05:34:31.313Z,35.14
2023-05-09T05:35:31.285Z,35.00
2023-05-09T05:36:31.242Z,35.15
2023-05-09T05:37:31.247Z,35.61
2023-05-09T05:38:31.246Z,35.66
2023-05-09T05:39:31.202Z,35.78
2023-05-09T05:40:31.558Z,36.33
2023-05-09T05:41:31.291Z,36.03
2023-05-09T05:42:31.198Z,36.30
2023-05-09T05:43:31.176Z,36.42
2023-05-09T05:44:31.171Z,36.62
2023-05-09T05:45:31.244Z,36.80
2023-05-09T05:46:31.153Z,37.01
2023-05-09T05:47:31.207Z,37.16
2023-05-09T05:48:31.168Z,37.38
2023-05-09T05:49:31.183Z,37.25
2023-05-09T05:50:31.209Z,37.16
2023-05-09T05:51:31.118Z,36.96
2023-05-09T05:52:31.128Z,37.09
2023-05-09T05:53:32.696Z,37.05
2023-05-09T05:54:31.132Z,37.00
2023-05-09T05:55:31.560Z,37.32
2023-05-09T05:56:31.130Z,37.22
2023-05-09T05:57:31.128Z,37.24
2023-05-09T05:58:31.089Z,37.16
2023-05-09T05:59:31.108Z,36.96
2023-05-09T06:00:31.142Z,37.00
2023-05-09T06:01:31.099Z,37.13
2023-05-09T06:02:31.149Z,36.85
2023-05-09T06:03:31.155Z,36.69
2023-05-09T06:04:31.031Z,36.53
2023-05-09T06:05:31.051Z,36.54
2023-05-09T06:06:31.021Z,36.50
2023-05-09T06:07:31.020Z,36.45
2023-05-09T06:08:31.047Z,36.54
2023-05-09T06:09:30.986Z,36.60
2023-05-09T06:10:31.033Z,36.52
2023-05-09T06:11:31.022Z,36.66
2023-05-09T06:12:31.488Z,36.66
2023-05-09T06:13:31.110Z,36.70
2023-05-09T06:14:30.959Z,36.71
2023-05-09T06:15:30.979Z,36.61
2023-05-09T06:16:31.001Z,36.59
2023-05-09T06:17:30.970Z,36.71
2023-05-09T06:18:31.061Z,36.49
2023-05-09T06:19:30.930Z,36.51
2023-05-09T06:20:30.944Z,36.33
2023-05-09T06:21:30.977Z,36.24
2023-05-09T06:22:30.931Z,36.39
2023-05-09T06:23:30.929Z,36.39
2023-05-09T06:24:35.731Z,36.43
2023-05-09T06:25:31.882Z,36.38
2023-05-09T06:26:30.906Z,36.30
2023-05-09T06:27:30.867Z,36.27
2023-05-09T06:28:30.900Z,36.25
2023-05-09T06:29:31.041Z,36.46
2023-05-09T06:30:30.864Z,36.73
2023-05-09T06:31:30.949Z,36.87
2023-05-09T06:32:30.950Z,36.83
2023-05-09T06:33:30.873Z,36.81
2023-05-09T06:34:30.867Z,36.87
2023-05-09T06:35:31.083Z,36.94
2023-05-09T06:36:30.852Z,37.01
2023-05-09T06:37:30.928Z,36.97
2023-05-09T06:38:30.825Z,36.97
2023-05-09T06:39:30.793Z,36.79
2023-05-09T06:40:30.797Z,36.67
2023-05-09T06:41:30.842Z,36.42
2023-05-09T06:42:30.778Z,36.48
2023-05-09T06:43:30.804Z,36.51
2023-05-09T06:44:30.832Z,36.53
2023-05-09T06:45:30.953Z,36.55
2023-05-09T06:46:30.811Z,36.57
2023-05-09T06:47:30.829Z,36.57
2023-05-09T06:48:30.757Z,36.77
2023-05-09T06:49:30.782Z,36.99
2023-05-09T06:50:32.770Z,37.08
2023-05-09T06:51:30.744Z,37.31
2023-05-09T06:52:30.781Z,37.55
2023-05-09T06:53:30.762Z,37.57
2023-05-09T06:54:30.799Z,37.50
2023-05-09T06:55:30.816Z,37.51
2023-05-09T06:56:30.818Z,37.48
2023-05-09T06:57:30.812Z,37.49
2023-05-09T06:58:31.104Z,37.56
2023-05-09T06:59:30.845Z,37.52
2023-05-09T07:00:31.042Z,37.45
2023-05-09T07:01:30.988Z,37.29
2023-05-09T07:02:30.925Z,37.33
2023-05-09T07:03:30.906Z,37.31
2023-05-09T07:04:30.944Z,37.20
2023-05-09T07:05:30.999Z,37.14
2023-05-09T07:06:30.916Z,37.12
2023-05-09T07:07:30.932Z,37.13
2023-05-09T07:08:30.955Z,37.05
2023-05-09T07:09:31.522Z,37.02
2023-05-09T07:10:31.056Z,37.02
2023-05-09T07:11:31.073Z,37.02
2023-05-09T07:12:31.095Z,37.06
2023-05-09T07:13:31.071Z,37.01
2023-05-09T07:14:31.087Z,37.07
2023-05-09T07:15:41.397Z,37.12
2023-05-09T07:16:32.104Z,37.08
2023-05-09T07:17:31.147Z,37.10
2023-05-09T07:18:31.075Z,37.03
2023-05-09T07:19:31.031Z,37.06
2023-05-09T07:20:31.033Z,37.17
2023-05-09T07:21:31.036Z,37.12
2023-05-09T07:22:32.129Z,37.29
2023-05-09T07:23:31.012Z,37.20
2023-05-09T07:24:31.061Z,37.17
2023-05-09T07:25:31.566Z,37.22
2023-05-09T07:26:31.167Z,37.27
2023-05-09T07:27:31.207Z,37.32
2023-05-09T07:28:31.273Z,37.23
2023-05-09T07:29:31.321Z,37.20
2023-05-09T07:30:31.429Z,37.27
2023-05-09T07:31:31.439Z,37.30
2023-05-09T07:32:31.557Z,37.28
2023-05-09T07:33:31.618Z,37.31
2023-05-09T07:34:31.561Z,37.31
2023-05-09T07:35:32.055Z,37.28
2023-05-09T07:36:33.620Z,37.26
2023-05-09T07:37:31.629Z,37.21
2023-05-09T07:38:31.624Z,37.14
2023-05-09T07:39:31.690Z,37.06
2023-05-09T07:40:31.643Z,37.10
2023-05-09T07:41:32.057Z,37.20
2023-05-09T07:42:31.616Z,37.14
2023-05-09T07:43:31.601Z,37.02
2023-05-09T07:44:31.588Z,37.29
2023-05-09T07:45:31.632Z,37.29
2023-05-09T07:46:32.074Z,37.13
2023-05-09T07:47:31.594Z,37.12
2023-05-09T07:48:31.589Z,37.07
2023-05-09T07:49:31.722Z,36.98
2023-05-09T07:50:31.586Z,36.81
2023-05-09T07:51:32.052Z,36.85
2023-05-09T07:52:31.547Z,36.83
2023-05-09T07:53:31.537Z,37.06
2023-05-09T07:54:31.517Z,37.04
2023-05-09T07:55:31.521Z,36.89
2023-05-09T07:56:31.579Z,37.00
2023-05-09T07:57:31.568Z,36.91
2023-05-09T07:58:31.534Z,36.87
2023-05-09T07:59:31.506Z,37.11
2023-05-09T08:00:31.496Z,37.03
2023-05-09T08:01:31.502Z,36.96
2023-05-09T08:02:31.532Z,36.71
2023-05-09T08:03:31.609Z,36.81
2023-05-09T08:04:31.500Z,37.14
2023-05-09T08:05:31.561Z,37.07
2023-05-09T08:06:31.481Z,36.87
2023-05-09T08:07:31.450Z,36.63
2023-05-09T08:08:31.437Z,36.60
2023-05-09T08:09:31.424Z,36.55
2023-05-09T08:10:31.378Z,36.79
2023-05-09T08:11:31.399Z,36.57
2023-05-09T08:12:32.016Z,36.39
2023-05-09T08:13:31.650Z,36.35
2023-05-09T08:14:31.401Z,36.29
2023-05-09T08:15:31.396Z,36.15
2023-05-09T08:16:31.383Z,36.22
2023-05-09T08:17:31.421Z,36.30
2023-05-09T08:18:31.445Z,36.20
2023-05-09T08:19:31.345Z,36.09
2023-05-09T08:20:31.429Z,36.13
2023-05-09T08:21:31.458Z,36.07
2023-05-09T08:22:31.374Z,35.95
2023-05-09T08:23:31.408Z,35.72
2023-05-09T08:24:31.454Z,36.15
2023-05-09T08:25:31.582Z,36.19
2023-05-09T08:26:32.294Z,36.19
2023-05-09T08:27:32.610Z,36.20
2023-05-09T08:28:32.572Z,35.36
2023-05-09T08:29:31.756Z,34.90
2023-05-09T08:30:33.060Z,34.32
2023-05-09T08:31:31.855Z,34.21
2023-05-09T08:32:31.780Z,33.75
2023-05-09T08:33:31.808Z,33.62
2023-05-09T08:34:31.782Z,33.54
2023-05-09T08:35:31.852Z,33.37
2023-05-09T08:36:31.821Z,33.52
2023-05-09T08:37:31.991Z,33.40
2023-05-09T08:38:31.910Z,33.42
2023-05-09T08:39:31.952Z,33.29
2023-05-09T08:40:31.950Z,33.22
2023-05-09T08:41:32.086Z,33.29
2023-05-09T08:42:32.018Z,34.11
2023-05-09T08:43:32.181Z,34.36
2023-05-09T08:44:32.646Z,34.48
2023-05-09T08:45:32.138Z,34.74
2023-05-09T08:46:32.266Z,34.67
2023-05-09T08:47:32.262Z,34.53
2023-05-09T08:48:34.028Z,34.83
2023-05-09T08:49:32.272Z,34.95
2023-05-09T08:50:32.275Z,34.89
2023-05-09T08:51:33.483Z,34.98
2023-05-09T08:52:32.312Z,35.00
2023-05-09T08:53:32.377Z,35.08
2023-05-09T08:54:32.557Z,35.05
2023-05-09T08:55:32.584Z,35.10
2023-05-09T08:56:32.299Z,35.02
2023-05-09T08:57:32.238Z,35.14
2023-05-09T08:58:34.149Z,35.09
2023-05-09T08:59:32.645Z,35.14
2023-05-09T09:00:32.210Z,35.21
2023-05-09T09:01:32.229Z,35.17
2023-05-09T09:02:32.275Z,35.23
2023-05-09T09:03:32.237Z,35.28
2023-05-09T09:04:32.225Z,35.40
2023-05-09T09:05:41.426Z,35.41
2023-05-09T09:06:33.200Z,35.36
2023-05-09T09:07:32.282Z,35.29
2023-05-09T09:08:32.176Z,35.36
2023-05-09T09:09:32.301Z,35.40
2023-05-09T09:10:32.685Z,35.39
2023-05-09T09:11:32.111Z,35.36
2023-05-09T09:12:32.114Z,35.38
2023-05-09T09:13:32.246Z,35.44
2023-05-09T09:14:32.264Z,35.45
2023-05-09T09:15:32.128Z,35.61
2023-05-09T09:16:32.710Z,35.54
2023-05-09T09:17:32.195Z,35.29
2023-05-09T09:18:32.210Z,35.10
2023-05-09T09:19:32.283Z,35.14
2023-05-09T09:20:32.304Z,35.35
2023-05-09T09:21:32.337Z,35.22
2023-05-09T09:22:32.384Z,35.28
2023-05-09T09:23:32.424Z,35.28
2023-05-09T09:24:32.605Z,35.32
2023-05-09T09:25:32.649Z,35.22
2023-05-09T09:26:32.608Z,35.09
2023-05-09T09:27:32.615Z,35.01
2023-05-09T09:28:32.671Z,35.00
2023-05-09T09:29:32.741Z,34.76
2023-05-09T09:30:32.793Z,34.95
2023-05-09T09:31:33.174Z,35.43
2023-05-09T09:32:33.083Z,35.60
2023-05-09T09:33:32.906Z,35.41
2023-05-09T09:34:32.984Z,35.24
2023-05-09T09:35:32.972Z,35.15
2023-05-09T09:36:33.155Z,35.04
2023-05-09T09:37:33.021Z,34.99
2023-05-09T09:38:33.045Z,34.97
2023-05-09T09:39:33.106Z,34.89
2023-05-09T09:40:33.247Z,34.90
2023-05-09T09:41:33.187Z,34.77
2023-05-09T09:42:33.183Z,34.77
2023-05-09T09:43:33.261Z,34.71
2023-05-09T09:44:33.680Z,34.61
2023-05-09T09:45:33.278Z,34.64
2023-05-09T09:46:33.365Z,34.60
2023-05-09T09:47:33.676Z,34.59
2023-05-09T09:48:33.389Z,34.54
2023-05-09T09:49:33.398Z,34.50
2023-05-09T09:50:33.497Z,34.46
2023-05-09T09:51:33.510Z,34.47
2023-05-09T09:52:33.445Z,34.38
2023-05-09T09:53:33.447Z,34.35
2023-05-09T09:54:33.453Z,34.31
2023-05-09T09:55:33.445Z,34.31
2023-05-09T09:56:33.485Z,34.27
2023-05-09T09:57:33.561Z,34.21
2023-05-09T09:58:33.476Z,34.20
2023-05-09T09:59:33.489Z,34.13
2023-05-09T10:00:33.498Z,34.16
2023-05-09T10:01:33.584Z,34.09
2023-05-09T10:02:33.553Z,34.02
2023-05-09T10:03:33.550Z,34.02
2023-05-09T10:04:33.515Z,34.02
2023-05-09T10:05:33.580Z,33.95
2023-05-09T10:06:33.595Z,33.98
2023-05-09T10:07:33.594Z,33.95
2023-05-09T10:08:33.625Z,33.91
2023-05-09T10:09:33.617Z,33.84
2023-05-09T10:10:33.639Z,33.87
2023-05-09T10:11:34.143Z,33.78
2023-05-09T10:12:33.660Z,33.76
2023-05-09T10:13:33.765Z,33.76
2023-05-09T10:14:35.128Z,33.73
2023-05-09T10:15:45.123Z,33.68
2023-05-09T10:16:43.787Z,33.73
2023-05-09T10:17:34.844Z,33.62
2023-05-09T10:18:33.906Z,33.63
2023-05-09T10:19:33.715Z,33.59
2023-05-09T10:20:33.686Z,33.57
2023-05-09T10:21:33.638Z,33.55
2023-05-09T10:22:33.652Z,33.55
2023-05-09T10:23:33.653Z,33.46
2023-05-09T10:24:33.625Z,33.40
2023-05-09T10:25:33.632Z,33.45
2023-05-09T10:26:33.634Z,33.40
2023-05-09T10:27:33.628Z,33.41
2023-05-09T10:28:33.588Z,33.36
2023-05-09T10:29:33.675Z,33.37
2023-05-09T10:30:34.082Z,33.35
2023-05-09T10:31:33.591Z,33.38
2023-05-09T10:32:33.611Z,33.41
2023-05-09T10:33:33.568Z,33.31
2023-05-09T10:34:33.579Z,33.34
2023-05-09T10:35:33.546Z,33.38
2023-05-09T10:36:33.553Z,33.35
2023-05-09T10:37:33.706Z,33.35
2023-05-09T10:38:33.530Z,33.35
2023-05-09T10:39:33.521Z,33.31
2023-05-09T10:40:33.531Z,33.26
2023-05-09T10:41:33.519Z,33.27
2023-05-09T10:42:33.533Z,33.30
2023-05-09T10:43:34.779Z,33.25
2023-05-09T10:44:33.663Z,33.29
2023-05-09T10:45:33.753Z,33.24
2023-05-09T10:46:33.718Z,33.17
2023-05-09T10:47:33.745Z,33.22
2023-05-09T10:48:33.730Z,33.16
2023-05-09T10:49:35.532Z,33.13
2023-05-09T10:50:33.729Z,33.17
2023-05-09T10:51:33.717Z,33.17
2023-05-09T10:52:33.712Z,33.13
2023-05-09T10:53:33.711Z,33.12
2023-05-09T10:54:33.744Z,33.10
2023-05-09T10:55:33.740Z,33.10
2023-05-09T10:56:33.671Z,33.07
2023-05-09T10:57:33.685Z,33.07
2023-05-09T10:58:33.761Z,33.04
2023-05-09T10:59:33.656Z,33.08
2023-05-09T11:00:33.676Z,33.06
2023-05-09T11:01:33.784Z,33.01
2023-05-09T11:02:33.635Z,32.99
2023-05-09T11:03:33.668Z,32.98
2023-05-09T11:04:33.617Z,33.00
2023-05-09T11:05:33.630Z,32.97
2023-05-09T11:06:33.590Z,32.95
2023-05-09T11:07:33.606Z,32.99
2023-05-09T11:08:33.606Z,32.94
2023-05-09T11:09:33.644Z,32.89
2023-05-09T11:10:33.561Z,32.91
2023-05-09T11:11:33.557Z,32.87
2023-05-09T11:12:33.585Z,32.90
2023-05-09T11:13:33.693Z,32.93
2023-05-09T11:14:33.563Z,32.90
2023-05-09T11:15:33.572Z,32.89
2023-05-09T11:16:33.566Z,32.86
2023-05-09T11:17:33.755Z,32.80
2023-05-09T11:18:33.513Z,32.84
2023-05-09T11:19:33.550Z,32.82
2023-05-09T11:20:33.704Z,32.85
2023-05-09T11:21:33.542Z,32.80
2023-05-09T11:22:33.652Z,32.82
2023-05-09T11:23:33.657Z,32.80
2023-05-09T11:24:33.688Z,32.75
2023-05-09T11:25:33.495Z,32.78
2023-05-09T11:26:33.484Z,32.75
2023-05-09T11:27:33.480Z,32.73
2023-05-09T11:28:33.477Z,32.75
2023-05-09T11:29:33.487Z,32.72
2023-05-09T11:30:33.507Z,32.73
2023-05-09T11:31:33.555Z,32.70
2023-05-09T11:32:33.444Z,32.70
2023-05-09T11:33:33.429Z,32.64
2023-05-09T11:34:33.431Z,32.69
2023-05-09T11:35:33.442Z,32.68
2023-05-09T11:36:33.584Z,32.63
2023-05-09T11:37:33.466Z,32.64
2023-05-09T11:38:33.438Z,32.63
2023-05-09T11:39:33.383Z,32.66
2023-05-09T11:40:33.472Z,32.60
2023-05-09T11:41:33.367Z,32.62
2023-05-09T11:42:33.359Z,32.56
2023-05-09T11:43:33.341Z,32.63
2023-05-09T11:44:33.437Z,32.55
2023-05-09T11:45:33.531Z,32.51
2023-05-09T11:46:33.370Z,32.50
2023-05-09T11:47:33.409Z,32.48
2023-05-09T11:48:33.350Z,32.39
2023-05-09T11:49:33.432Z,32.41
2023-05-09T11:50:33.359Z,32.39
2023-05-09T11:51:33.281Z,32.36
2023-05-09T11:52:33.373Z,32.38
2023-05-09T11:53:33.322Z,32.32
2023-05-09T11:54:33.322Z,32.31
2023-05-09T11:55:33.282Z,32.26
2023-05-09T11:56:33.284Z,32.25
2023-05-09T11:57:33.259Z,32.24
2023-05-09T11:58:33.309Z,32.16
2023-05-09T11:59:33.247Z,32.21
2023-05-09T12:00:33.283Z,32.14
2023-05-09T12:01:33.224Z,32.18
2023-05-09T12:02:33.387Z,32.14
2023-05-09T12:03:33.298Z,32.12
2023-05-09T12:04:33.252Z,32.11
2023-05-09T12:05:33.233Z,32.09
2023-05-09T12:06:33.191Z,32.07
2023-05-09T12:07:33.193Z,32.05
2023-05-09T12:08:33.212Z,32.01
2023-05-09T12:09:33.182Z,31.98
2023-05-09T12:10:33.180Z,31.98
2023-05-09T12:11:33.167Z,31.99
2023-05-09T12:12:33.167Z,31.91
2023-05-09T12:13:33.191Z,31.95
2023-05-09T12:14:33.161Z,31.93
2023-05-09T12:15:33.105Z,31.88
2023-05-09T12:16:33.172Z,31.89
2023-05-09T12:17:33.199Z,31.88
2023-05-09T12:18:33.112Z,31.90
2023-05-09T12:19:33.109Z,31.84
2023-05-09T12:20:33.105Z,31.84
2023-05-09T12:21:33.176Z,31.82
2023-05-09T12:22:33.118Z,31.75
2023-05-09T12:23:33.151Z,31.75
2023-05-09T12:24:33.110Z,31.79
2023-05-09T12:25:33.082Z,31.74
2023-05-09T12:26:33.057Z,31.72
2023-05-09T12:27:33.117Z,31.78
2023-05-09T12:28:33.032Z,31.74
2023-05-09T12:29:33.104Z,31.72
2023-05-09T12:30:33.055Z,31.74
2023-05-09T12:31:33.132Z,31.71
2023-05-09T12:32:33.112Z,31.70
2023-05-09T12:33:33.004Z,31.59
2023-05-09T12:34:33.006Z,31.57
2023-05-09T12:35:33.049Z,31.61
2023-05-09T12:36:33.046Z,31.60
2023-05-09T12:37:33.071Z,31.55
2023-05-09T12:38:33.007Z,31.55
2023-05-09T12:39:32.973Z,31.55
2023-05-09T12:40:32.970Z,31.52
2023-05-09T12:41:37.332Z,31.50
2023-05-09T12:42:33.913Z,31.54
2023-05-09T12:43:32.952Z,31.52
2023-05-09T12:44:32.948Z,31.50
2023-05-09T12:45:32.979Z,31.48
2023-05-09T12:46:33.177Z,31.39
2023-05-09T12:47:32.928Z,31.43
2023-05-09T12:48:32.907Z,31.39
2023-05-09T12:49:32.935Z,31.46
2023-05-09T12:50:32.896Z,31.40
2023-05-09T12:51:32.941Z,31.45
2023-05-09T12:52:32.907Z,31.39